Airport View

Enter AWOS ICAO identifier for current METAR.

ex. KFNL

KSDA 031600Z AUTO 07008G14KT 10SM CLR 29/23 A3002 RMK AO2

3 Jul 2020 16:00

Frequency: 125.525

Phone: 712-246-4021

Other Area AWOS: KRDK - KICL - KAFK - KPMV

TAF KOFF 031000Z 0310/0416 VRB06KT 9999 BKN040 QNH3004INS BECMG 0315/0316 11009KT 9999 FEW040 SCT100 QNH3002INS TX32/0320Z TN22/0311Z